sensor_id;sensor_type;location;lat;lon;timestamp;pressure;altitude;pressure_sealevel;temperature;humidity
22753;BME280;11543;43.144;24.684;2023-06-14T00:00:58;98535.84;;;19.22;83.77
22753;BME280;11543;43.144;24.684;2023-06-14T00:03:23;98544.97;;;19.34;83.76
22753;BME280;11543;43.144;24.684;2023-06-14T00:05:50;98544.41;;;19.25;83.98
22753;BME280;11543;43.144;24.684;2023-06-14T00:08:15;98550.63;;;19.32;84.07
22753;BME280;11543;43.144;24.684;2023-06-14T00:10:41;98533.13;;;19.22;83.98
22753;BME280;11543;43.144;24.684;2023-06-14T00:13:08;98541.91;;;19.24;84.20
22753;BME280;11543;43.144;24.684;2023-06-14T00:15:34;98552.31;;;19.33;84.19
22753;BME280;11543;43.144;24.684;2023-06-14T00:18:00;98547.25;;;19.37;84.25
22753;BME280;11543;43.144;24.684;2023-06-14T00:20:29;98546.81;;;19.40;84.23
22753;BME280;11543;43.144;24.684;2023-06-14T00:22:56;98538.84;;;19.45;84.25
22753;BME280;11543;43.144;24.684;2023-06-14T00:25:25;98543.00;;;19.48;83.88
22753;BME280;11543;43.144;24.684;2023-06-14T00:27:51;98548.66;;;19.46;83.89
22753;BME280;11543;43.144;24.684;2023-06-14T00:30:17;98538.84;;;19.45;83.75
22753;BME280;11543;43.144;24.684;2023-06-14T00:32:43;98543.84;;;19.48;83.51
22753;BME280;11543;43.144;24.684;2023-06-14T00:35:09;98534.63;;;19.49;83.67
22753;BME280;11543;43.144;24.684;2023-06-14T00:37:35;98521.47;;;19.46;83.44
22753;BME280;11543;43.144;24.684;2023-06-14T00:40:01;98512.69;;;19.44;83.55
22753;BME280;11543;43.144;24.684;2023-06-14T00:42:28;98507.00;;;19.52;83.35
22753;BME280;11543;43.144;24.684;2023-06-14T00:44:54;98504.00;;;19.60;83.12
22753;BME280;11543;43.144;24.684;2023-06-14T00:47:20;98513.56;;;19.69;82.90
22753;BME280;11543;43.144;24.684;2023-06-14T00:49:46;98518.13;;;19.76;82.60
22753;BME280;11543;43.144;24.684;2023-06-14T00:52:14;98505.13;;;19.78;82.44
22753;BME280;11543;43.144;24.684;2023-06-14T00:54:40;98503.91;;;19.73;82.55
22753;BME280;11543;43.144;24.684;2023-06-14T00:57:07;98497.19;;;19.76;82.04
22753;BME280;11543;43.144;24.684;2023-06-14T00:59:33;98497.56;;;19.80;81.90
22753;BME280;11543;43.144;24.684;2023-06-14T01:02:00;98492.13;;;19.80;81.90
22753;BME280;11543;43.144;24.684;2023-06-14T01:04:26;98486.06;;;19.78;81.61
22753;BME280;11543;43.144;24.684;2023-06-14T01:07:09;98493.34;;;19.84;81.49
22753;BME280;11543;43.144;24.684;2023-06-14T01:12:39;98502.56;;;19.83;81.24
22753;BME280;11543;43.144;24.684;2023-06-14T01:15:06;98494.69;;;19.75;81.31
22753;BME280;11543;43.144;24.684;2023-06-14T01:17:33;98499.06;;;19.76;81.52
22753;BME280;11543;43.144;24.684;2023-06-14T01:20:02;98503.91;;;19.73;81.26
22753;BME280;11543;43.144;24.684;2023-06-14T01:22:28;98491.03;;;19.62;81.57
22753;BME280;11543;43.144;24.684;2023-06-14T01:24:54;98491.91;;;19.56;81.92
22753;BME280;11543;43.144;24.684;2023-06-14T01:27:24;98503.56;;;19.63;81.95
22753;BME280;11543;43.144;24.684;2023-06-14T01:29:54;98500.03;;;19.63;82.09
22753;BME280;11543;43.144;24.684;2023-06-14T01:32:24;98499.00;;;19.57;82.51
22753;BME280;11543;43.144;24.684;2023-06-14T01:34:51;98499.47;;;19.54;82.63
22753;BME280;11543;43.144;24.684;2023-06-14T01:37:18;98488.59;;;19.48;82.79
22753;BME280;11543;43.144;24.684;2023-06-14T01:39:44;98504.47;;;19.57;82.66
22753;BME280;11543;43.144;24.684;2023-06-14T01:42:11;98492.75;;;19.50;82.92
22753;BME280;11543;43.144;24.684;2023-06-14T01:44:38;98492.75;;;19.50;82.62
22753;BME280;11543;43.144;24.684;2023-06-14T01:47:05;98488.66;;;19.41;82.75
22753;BME280;11543;43.144;24.684;2023-06-14T01:49:34;98507.41;;;19.49;82.80
22753;BME280;11543;43.144;24.684;2023-06-14T01:52:00;98496.19;;;19.39;83.09
22753;BME280;11543;43.144;24.684;2023-06-14T01:54:26;98507.56;;;19.29;83.23
22753;BME280;11543;43.144;24.684;2023-06-14T01:56:52;98502.16;;;19.23;83.64
22753;BME280;11543;43.144;24.684;2023-06-14T01:59:18;98507.63;;;19.16;83.87
22753;BME280;11543;43.144;24.684;2023-06-14T02:01:44;98500.31;;;19.17;84.01
22753;BME280;11543;43.144;24.684;2023-06-14T02:04:11;98508.91;;;19.14;83.96
22753;BME280;11543;43.144;24.684;2023-06-14T02:06:37;98504.75;;;19.11;84.32
22753;BME280;11543;43.144;24.684;2023-06-14T02:09:03;98507.25;;;19.13;84.43
22753;BME280;11543;43.144;24.684;2023-06-14T02:11:29;98506.00;;;19.08;84.39
22753;BME280;11543;43.144;24.684;2023-06-14T02:13:55;98500.16;;;19.05;84.18
22753;BME280;11543;43.144;24.684;2023-06-14T02:16:21;98506.84;;;19.02;84.10
22753;BME280;11543;43.144;24.684;2023-06-14T02:18:47;98508.53;;;19.03;83.94
22753;BME280;11543;43.144;24.684;2023-06-14T02:21:14;98509.00;;;18.94;84.26
22753;BME280;11543;43.144;24.684;2023-06-14T02:23:40;98516.72;;;18.97;84.24
22753;BME280;11543;43.144;24.684;2023-06-14T02:26:05;98524.00;;;19.03;84.50
22753;BME280;11543;43.144;24.684;2023-06-14T02:28:31;98520.22;;;19.04;84.39
22753;BME280;11543;43.144;24.684;2023-06-14T02:30:57;98519.03;;;18.93;84.36
22753;BME280;11543;43.144;24.684;2023-06-14T02:33:22;98522.38;;;18.95;84.19
22753;BME280;11543;43.144;24.684;2023-06-14T02:35:48;98523.63;;;18.93;84.32
22753;BME280;11543;43.144;24.684;2023-06-14T02:38:13;98520.50;;;18.89;84.35
22753;BME280;11543;43.144;24.684;2023-06-14T02:40:39;98532.63;;;18.93;84.40
22753;BME280;11543;43.144;24.684;2023-06-14T02:43:07;98528.00;;;19.00;84.22
22753;BME280;11543;43.144;24.684;2023-06-14T02:45:33;98531.53;;;19.07;84.41
22753;BME280;11543;43.144;24.684;2023-06-14T02:47:58;98531.06;;;19.17;83.84
22753;BME280;11543;43.144;24.684;2023-06-14T02:50:24;98529.78;;;19.20;83.88
22753;BME280;11543;43.144;24.684;2023-06-14T02:52:49;98533.13;;;19.22;83.67
22753;BME280;11543;43.144;24.684;2023-06-14T02:55:15;98543.75;;;19.30;83.54
22753;BME280;11543;43.144;24.684;2023-06-14T02:57:41;98542.25;;;19.34;83.11
22753;BME280;11543;43.144;24.684;2023-06-14T03:00:06;98546.44;;;19.36;82.98
22753;BME280;11543;43.144;24.684;2023-06-14T03:02:35;98559.78;;;19.45;82.43
22753;BME280;11543;43.144;24.684;2023-06-14T03:05:00;98558.94;;;19.44;82.45
22753;BME280;11543;43.144;24.684;2023-06-14T03:07:28;98557.44;;;19.48;82.05
22753;BME280;11543;43.144;24.684;2023-06-14T03:09:55;98563.50;;;19.50;82.20
22753;BME280;11543;43.144;24.684;2023-06-14T03:12:20;98558.94;;;19.44;81.78
22753;BME280;11543;43.144;24.684;2023-06-14T03:14:46;98565.00;;;19.46;81.54
22753;BME280;11543;43.144;24.684;2023-06-14T03:17:12;98568.34;;;19.48;81.78
22753;BME280;11543;43.144;24.684;2023-06-14T03:19:37;98562.72;;;19.43;81.78
22753;BME280;11543;43.144;24.684;2023-06-14T03:22:03;98567.28;;;19.49;81.48
22753;BME280;11543;43.144;24.684;2023-06-14T03:24:29;98558.72;;;19.46;81.56
22753;BME280;11543;43.144;24.684;2023-06-14T03:26:54;98555.38;;;19.44;81.55
22753;BME280;11543;43.144;24.684;2023-06-14T03:29:20;98557.88;;;19.45;81.23
22753;BME280;11543;43.144;24.684;2023-06-14T03:31:57;98566.00;;;19.52;81.25
22753;BME280;11543;43.144;24.684;2023-06-14T03:34:23;98574.59;;;19.55;81.53
22753;BME280;11543;43.144;24.684;2023-06-14T03:36:49;98568.53;;;19.53;81.17
22753;BME280;11543;43.144;24.684;2023-06-14T03:39:14;98573.53;;;19.56;81.23
22753;BME280;11543;43.144;24.684;2023-06-14T03:41:40;98563.50;;;19.50;81.39
22753;BME280;11543;43.144;24.684;2023-06-14T03:44:06;98547.22;;;19.44;81.08
22753;BME280;11543;43.144;24.684;2023-06-14T03:46:31;98570.59;;;19.58;81.22
22753;BME280;11543;43.144;24.684;2023-06-14T03:48:56;98574.78;;;19.60;81.12
22753;BME280;11543;43.144;24.684;2023-06-14T03:51:22;98568.09;;;19.56;81.21
22753;BME280;11543;43.144;24.684;2023-06-14T03:53:48;98571.44;;;19.58;81.12
22753;BME280;11543;43.144;24.684;2023-06-14T03:56:13;98584.78;;;19.66;80.90
22753;BME280;11543;43.144;24.684;2023-06-14T03:58:39;98588.94;;;19.69;80.78
22753;BME280;11543;43.144;24.684;2023-06-14T04:01:05;98585.56;;;19.73;80.75
22753;BME280;11543;43.144;24.684;2023-06-14T04:03:32;98561.78;;;19.62;80.72
22753;BME280;11543;43.144;24.684;2023-06-14T04:05:58;98568.44;;;19.66;80.46
22753;BME280;11543;43.144;24.684;2023-06-14T04:08:25;98570.94;;;19.68;80.12
22753;BME280;11543;43.144;24.684;2023-06-14T04:10:50;98588.06;;;19.75;80.21
22753;BME280;11543;43.144;24.684;2023-06-14T04:13:16;98591.00;;;19.73;80.41
22753;BME280;11543;43.144;24.684;2023-06-14T04:15:42;98588.13;;;19.68;80.69
22753;BME280;11543;43.144;24.684;2023-06-14T04:18:09;98589.38;;;19.66;81.01
22753;BME280;11543;43.144;24.684;2023-06-14T04:20:34;98593.16;;;19.65;80.97
22753;BME280;11543;43.144;24.684;2023-06-14T04:23:20;98607.78;;;19.70;81.51
22753;BME280;11543;43.144;24.684;2023-06-14T04:25:46;98587.53;;;19.60;81.37
22753;BME280;11543;43.144;24.684;2023-06-14T04:28:13;98609.00;;;19.75;81.33
22753;BME280;11543;43.144;24.684;2023-06-14T04:30:42;98602.50;;;19.76;81.40
22753;BME280;11543;43.144;24.684;2023-06-14T04:33:07;98593.56;;;19.68;81.40
22753;BME280;11543;43.144;24.684;2023-06-14T04:35:35;98595.84;;;19.71;81.34
22753;BME280;11543;43.144;24.684;2023-06-14T04:38:01;98601.28;;;19.71;81.39
22753;BME280;11543;43.144;24.684;2023-06-14T04:43:51;98598.91;;;19.82;81.35
22753;BME280;11543;43.144;24.684;2023-06-14T04:49:40;98617.06;;;19.94;80.64
22753;BME280;11543;43.144;24.684;2023-06-14T04:55:27;98618.94;;;19.94;80.51
22753;BME280;11543;43.144;24.684;2023-06-14T05:01:14;98618.06;;;20.00;80.31
22753;BME280;11543;43.144;24.684;2023-06-14T05:07:01;98624.75;;;20.04;80.11
22753;BME280;11543;43.144;24.684;2023-06-14T05:12:49;98628.09;;;20.06;80.03
22753;BME280;11543;43.144;24.684;2023-06-14T05:18:37;98627.81;;;20.14;79.80
22753;BME280;11543;43.144;24.684;2023-06-14T05:24:24;98632.41;;;20.14;79.78
22753;BME280;11543;43.144;24.684;2023-06-14T05:30:13;98637.19;;;20.18;79.71
22753;BME280;11543;43.144;24.684;2023-06-14T05:42:56;98637.88;;;20.39;79.51
22753;BME280;11543;43.144;24.684;2023-06-14T05:45:21;98640.78;;;20.44;79.61
22753;BME280;11543;43.144;24.684;2023-06-14T05:47:47;98621.53;;;20.39;79.55
22753;BME280;11543;43.144;24.684;2023-06-14T05:50:12;98642.16;;;20.53;79.76
22753;BME280;11543;43.144;24.684;2023-06-14T05:52:38;98644.44;;;20.56;79.25
22753;BME280;11543;43.144;24.684;2023-06-14T05:55:04;98642.34;;;20.58;78.96
22753;BME280;11543;43.144;24.684;2023-06-14T05:57:31;98637.78;;;20.52;78.54
22753;BME280;11543;43.144;24.684;2023-06-14T05:59:57;98623.53;;;20.50;78.68
22753;BME280;11543;43.144;24.684;2023-06-14T06:02:24;98627.19;;;20.62;78.52
22753;BME280;11543;43.144;24.684;2023-06-14T06:04:52;98635.84;;;20.77;78.46
22753;BME280;11543;43.144;24.684;2023-06-14T06:07:19;98629.53;;;20.83;78.29
22753;BME280;11543;43.144;24.684;2023-06-14T06:09:45;98629.00;;;20.93;78.64
22753;BME280;11543;43.144;24.684;2023-06-14T06:12:10;98624.69;;;21.04;78.95
22753;BME280;11543;43.144;24.684;2023-06-14T06:14:37;98632.47;;;21.18;79.04
22753;BME280;11543;43.144;24.684;2023-06-14T06:17:02;98624.00;;;21.26;78.98
22753;BME280;11543;43.144;24.684;2023-06-14T06:19:29;98641.66;;;21.42;78.96
22753;BME280;11543;43.144;24.684;2023-06-14T06:21:55;98632.16;;;21.45;79.14
22753;BME280;11543;43.144;24.684;2023-06-14T06:24:20;98626.63;;;21.51;78.62
22753;BME280;11543;43.144;24.684;2023-06-14T06:26:46;98630.47;;;21.62;78.43
22753;BME280;11543;43.144;24.684;2023-06-14T06:29:11;98631.13;;;21.76;78.04
22753;BME280;11543;43.144;24.684;2023-06-14T06:31:37;98632.00;;;21.88;78.25
22753;BME280;11543;43.144;24.684;2023-06-14T06:34:02;98636.00;;;22.04;77.83
22753;BME280;11543;43.144;24.684;2023-06-14T06:36:28;98635.88;;;22.10;77.13
22753;BME280;11543;43.144;24.684;2023-06-14T06:38:54;98646.59;;;22.23;76.81
22753;BME280;11543;43.144;24.684;2023-06-14T06:41:19;98650.19;;;22.36;76.50
22753;BME280;11543;43.144;24.684;2023-06-14T06:43:45;98634.16;;;22.39;76.37
22753;BME280;11543;43.144;24.684;2023-06-14T06:46:10;98659.75;;;22.68;76.07
22753;BME280;11543;43.144;24.684;2023-06-14T06:48:36;98646.44;;;22.60;74.19
22753;BME280;11543;43.144;24.684;2023-06-14T06:51:01;98673.06;;;22.76;73.68
22753;BME280;11543;43.144;24.684;2023-06-14T06:53:27;98660.94;;;22.72;72.57
22753;BME280;11543;43.144;24.684;2023-06-14T06:55:52;98666.41;;;22.72;72.31
22753;BME280;11543;43.144;24.684;2023-06-14T06:58:17;98661.28;;;22.76;72.07
22753;BME280;11543;43.144;24.684;2023-06-14T07:00:43;98668.34;;;22.83;72.23
22753;BME280;11543;43.144;24.684;2023-06-14T07:03:08;98651.78;;;22.78;71.80
22753;BME280;11543;43.144;24.684;2023-06-14T07:05:34;98655.16;;;22.80;71.92
22753;BME280;11543;43.144;24.684;2023-06-14T07:08:00;98656.56;;;22.83;71.63
22753;BME280;11543;43.144;24.684;2023-06-14T07:10:25;98659.78;;;22.92;71.94
22753;BME280;11543;43.144;24.684;2023-06-14T07:12:51;98667.13;;;23.03;71.82
22753;BME280;11543;43.144;24.684;2023-06-14T07:15:16;98667.00;;;23.09;71.80
22753;BME280;11543;43.144;24.684;2023-06-14T07:17:42;98656.91;;;23.10;71.95
22753;BME280;11543;43.144;24.684;2023-06-14T07:20:08;98662.59;;;23.20;71.79
22753;BME280;11543;43.144;24.684;2023-06-14T07:22:43;98666.28;;;23.26;71.70
22753;BME280;11543;43.144;24.684;2023-06-14T07:25:09;98662.31;;;23.33;71.38
22753;BME280;11543;43.144;24.684;2023-06-14T07:27:35;98672.44;;;23.44;71.97
22753;BME280;11543;43.144;24.684;2023-06-14T07:30:00;98664.22;;;23.44;70.90
22753;BME280;11543;43.144;24.684;2023-06-14T07:32:26;98641.34;;;23.39;70.23
22753;BME280;11543;43.144;24.684;2023-06-14T07:34:51;98652.69;;;23.42;70.31
22753;BME280;11543;43.144;24.684;2023-06-14T07:37:17;98655.63;;;23.52;71.06
22753;BME280;11543;43.144;24.684;2023-06-14T07:39:42;98649.69;;;23.56;71.04
22753;BME280;11543;43.144;24.684;2023-06-14T07:42:08;98651.13;;;23.58;70.83
22753;BME280;11543;43.144;24.684;2023-06-14T07:44:33;98653.72;;;23.65;69.82
22753;BME280;11543;43.144;24.684;2023-06-14T07:46:59;98660.47;;;23.74;69.49
22753;BME280;11543;43.144;24.684;2023-06-14T07:49:25;98663.28;;;23.79;69.21
22753;BME280;11543;43.144;24.684;2023-06-14T07:51:51;98659.81;;;23.83;68.69
22753;BME280;11543;43.144;24.684;2023-06-14T07:54:17;98660.75;;;23.89;68.74
22753;BME280;11543;43.144;24.684;2023-06-14T07:56:42;98675.41;;;24.11;68.59
22753;BME280;11543;43.144;24.684;2023-06-14T07:59:08;98646.59;;;24.09;68.70
22753;BME280;11543;43.144;24.684;2023-06-14T08:01:34;98658.66;;;24.25;68.12
22753;BME280;11543;43.144;24.684;2023-06-14T08:04:00;98676.00;;;24.42;68.33
22753;BME280;11543;43.144;24.684;2023-06-14T08:06:26;98666.94;;;24.41;66.96
22753;BME280;11543;43.144;24.684;2023-06-14T08:08:51;98681.25;;;24.60;66.91
22753;BME280;11543;43.144;24.684;2023-06-14T08:11:17;98665.69;;;24.66;66.59
22753;BME280;11543;43.144;24.684;2023-06-14T08:13:43;98649.88;;;24.73;67.13
22753;BME280;11543;43.144;24.684;2023-06-14T08:16:09;98669.06;;;24.90;66.69
22753;BME280;11543;43.144;24.684;2023-06-14T08:18:34;98664.66;;;25.05;64.90
22753;BME280;11543;43.144;24.684;2023-06-14T08:21:00;98677.09;;;25.30;64.45
22753;BME280;11543;43.144;24.684;2023-06-14T08:23:25;98680.94;;;25.51;63.88
22753;BME280;11543;43.144;24.684;2023-06-14T08:25:52;98684.47;;;25.68;63.40
22753;BME280;11543;43.144;24.684;2023-06-14T08:28:17;98682.41;;;25.80;63.24
22753;BME280;11543;43.144;24.684;2023-06-14T08:30:43;98674.84;;;25.92;63.08
22753;BME280;11543;43.144;24.684;2023-06-14T08:33:08;98683.28;;;26.08;62.05
22753;BME280;11543;43.144;24.684;2023-06-14T08:35:34;98673.94;;;26.09;61.52
22753;BME280;11543;43.144;24.684;2023-06-14T08:38:05;98685.16;;;26.29;61.46
22753;BME280;11543;43.144;24.684;2023-06-14T08:40:30;98672.69;;;26.21;61.01
22753;BME280;11543;43.144;24.684;2023-06-14T08:42:57;98671.66;;;26.27;60.83
22753;BME280;11543;43.144;24.684;2023-06-14T08:45:24;98690.78;;;26.39;59.51
22753;BME280;11543;43.144;24.684;2023-06-14T08:47:53;98692.03;;;26.31;59.51
22753;BME280;11543;43.144;24.684;2023-06-14T08:50:24;98698.63;;;26.30;59.65
22753;BME280;11543;43.144;24.684;2023-06-14T08:52:57;98692.31;;;26.30;60.31
22753;BME280;11543;43.144;24.684;2023-06-14T08:55:26;98695.06;;;26.30;60.27
22753;BME280;11543;43.144;24.684;2023-06-14T08:57:56;98690.03;;;26.22;61.68
22753;BME280;11543;43.144;24.684;2023-06-14T09:00:26;98682.63;;;26.22;61.14
22753;BME280;11543;43.144;24.684;2023-06-14T09:02:52;98693.22;;;26.36;61.23
22753;BME280;11543;43.144;24.684;2023-06-14T09:05:28;98677.53;;;26.36;60.65
22753;BME280;11543;43.144;24.684;2023-06-14T09:08:00;98688.69;;;26.51;60.05
22753;BME280;11543;43.144;24.684;2023-06-14T09:10:27;98676.00;;;26.50;59.95
22753;BME280;11543;43.144;24.684;2023-06-14T09:12:53;98681.44;;;26.77;59.26
22753;BME280;11543;43.144;24.684;2023-06-14T09:15:18;98694.53;;;26.92;59.02
22753;BME280;11543;43.144;24.684;2023-06-14T09:17:44;98695.16;;;26.99;59.08
22753;BME280;11543;43.144;24.684;2023-06-14T09:20:10;98698.47;;;27.01;58.74
22753;BME280;11543;43.144;24.684;2023-06-14T09:22:39;98674.22;;;26.98;58.90
22753;BME280;11543;43.144;24.684;2023-06-14T09:25:07;98683.72;;;27.22;57.87
22753;BME280;11543;43.144;24.684;2023-06-14T09:27:33;98678.84;;;27.40;57.91
22753;BME280;11543;43.144;24.684;2023-06-14T09:29:58;98677.88;;;27.61;58.16
22753;BME280;11543;43.144;24.684;2023-06-14T09:32:24;98678.53;;;27.83;56.75
22753;BME280;11543;43.144;24.684;2023-06-14T09:34:50;98663.97;;;28.08;56.62
22753;BME280;11543;43.144;24.684;2023-06-14T09:37:32;98682.53;;;28.48;55.02
22753;BME280;11543;43.144;24.684;2023-06-14T09:39:58;98675.38;;;28.73;52.65
22753;BME280;11543;43.144;24.684;2023-06-14T09:42:24;98677.56;;;28.81;52.50
22753;BME280;11543;43.144;24.684;2023-06-14T09:44:52;98684.75;;;28.82;53.34
22753;BME280;11543;43.144;24.684;2023-06-14T09:47:18;98685.59;;;28.77;52.98
22753;BME280;11543;43.144;24.684;2023-06-14T09:49:44;98675.94;;;28.70;53.07
22753;BME280;11543;43.144;24.684;2023-06-14T09:52:21;98677.56;;;28.61;52.49
22753;BME280;11543;43.144;24.684;2023-06-14T09:54:48;98676.72;;;28.60;53.64
22753;BME280;11543;43.144;24.684;2023-06-14T09:57:22;98674.81;;;28.71;53.85
22753;BME280;11543;43.144;24.684;2023-06-14T09:59:48;98670.13;;;28.66;53.63
22753;BME280;11543;43.144;24.684;2023-06-14T10:04:46;98679.53;;;28.85;52.83
22753;BME280;11543;43.144;24.684;2023-06-14T10:07:18;98650.53;;;28.88;52.48
22753;BME280;11543;43.144;24.684;2023-06-14T10:09:45;98671.47;;;29.09;51.55
22753;BME280;11543;43.144;24.684;2023-06-14T10:12:16;98663.22;;;28.99;52.61
22753;BME280;11543;43.144;24.684;2023-06-14T10:14:49;98674.22;;;29.20;51.75
22753;BME280;11543;43.144;24.684;2023-06-14T10:19:55;98654.28;;;29.33;51.90
22753;BME280;11543;43.144;24.684;2023-06-14T10:22:43;98668.06;;;29.58;50.85
22753;BME280;11543;43.144;24.684;2023-06-14T10:25:13;98650.34;;;29.59;50.62
22753;BME280;11543;43.144;24.684;2023-06-14T10:27:50;98661.69;;;29.63;50.11
22753;BME280;11543;43.144;24.684;2023-06-14T10:30:16;98649.28;;;29.40;50.80
22753;BME280;11543;43.144;24.684;2023-06-14T10:33:07;98660.63;;;29.48;50.91
22753;BME280;11543;43.144;24.684;2023-06-14T10:35:33;98648.47;;;29.34;51.25
22753;BME280;11543;43.144;24.684;2023-06-14T10:38:14;98649.59;;;29.28;51.51
22753;BME280;11543;43.144;24.684;2023-06-14T10:40:40;98658.19;;;29.22;51.84
22753;BME280;11543;43.144;24.684;2023-06-14T10:43:22;98652.13;;;29.14;52.17
22753;BME280;11543;43.144;24.684;2023-06-14T10:48:42;98652.41;;;29.13;52.59
22753;BME280;11543;43.144;24.684;2023-06-14T10:51:20;98644.84;;;29.39;50.16
22753;BME280;11543;43.144;24.684;2023-06-14T10:53:48;98643.69;;;29.65;49.83
22753;BME280;11543;43.144;24.684;2023-06-14T10:56:30;98636.16;;;29.76;48.30
22753;BME280;11543;43.144;24.684;2023-06-14T10:58:59;98637.00;;;29.76;49.34
22753;BME280;11543;43.144;24.684;2023-06-14T11:01:56;98631.38;;;29.92;49.12
22753;BME280;11543;43.144;24.684;2023-06-14T11:04:34;98634.63;;;30.04;49.15
22753;BME280;11543;43.144;24.684;2023-06-14T11:09:55;98623.91;;;30.31;47.75
22753;BME280;11543;43.144;24.684;2023-06-14T11:12:32;98617.16;;;30.48;47.50
22753;BME280;11543;43.144;24.684;2023-06-14T11:14:58;98619.94;;;30.48;48.12
22753;BME280;11543;43.144;24.684;2023-06-14T11:17:24;98607.81;;;30.72;46.33
22753;BME280;11543;43.144;24.684;2023-06-14T11:19:50;98617.97;;;30.82;46.33
22753;BME280;11543;43.144;24.684;2023-06-14T11:22:15;98591.38;;;30.81;46.77
22753;BME280;11543;43.144;24.684;2023-06-14T11:24:42;98604.84;;;31.22;46.42
22753;BME280;11543;43.144;24.684;2023-06-14T11:27:09;98610.16;;;31.61;45.69
22753;BME280;11543;43.144;24.684;2023-06-14T11:29:34;98608.44;;;31.65;46.29
22753;BME280;11543;43.144;24.684;2023-06-14T11:32:00;98597.97;;;31.81;44.01
22753;BME280;11543;43.144;24.684;2023-06-14T11:34:25;98601.28;;;32.02;44.77
22753;BME280;11543;43.144;24.684;2023-06-14T11:36:51;98592.88;;;32.07;44.84
22753;BME280;11543;43.144;24.684;2023-06-14T11:39:16;98612.34;;;32.25;43.73
22753;BME280;11543;43.144;24.684;2023-06-14T11:41:43;98603.44;;;32.23;43.60
22753;BME280;11543;43.144;24.684;2023-06-14T11:44:10;98600.31;;;32.11;43.46
22753;BME280;11543;43.144;24.684;2023-06-14T11:46:37;98584.63;;;31.83;43.09
22753;BME280;11543;43.144;24.684;2023-06-14T11:49:03;98573.28;;;31.60;44.62
22753;BME280;11543;43.144;24.684;2023-06-14T11:51:34;98587.06;;;31.65;45.12
22753;BME280;11543;43.144;24.684;2023-06-14T11:54:01;98580.94;;;31.68;45.17
22753;BME280;11543;43.144;24.684;2023-06-14T11:56:28;98588.16;;;31.70;45.35
22753;BME280;11543;43.144;24.684;2023-06-14T11:58:54;98575.38;;;31.68;44.90
22753;BME280;11543;43.144;24.684;2023-06-14T12:01:22;98582.84;;;31.73;44.67
22753;BME280;11543;43.144;24.684;2023-06-14T12:03:52;98586.97;;;31.76;45.17
22753;BME280;11543;43.144;24.684;2023-06-14T12:06:26;98578.09;;;31.74;45.16
22753;BME280;11543;43.144;24.684;2023-06-14T12:08:58;98587.31;;;31.69;44.50
22753;BME280;11543;43.144;24.684;2023-06-14T12:11:24;98565.47;;;31.62;44.81
22753;BME280;11543;43.144;24.684;2023-06-14T12:13:53;98559.34;;;31.65;44.54
22753;BME280;11543;43.144;24.684;2023-06-14T12:16:18;98563.09;;;31.56;44.22
22753;BME280;11543;43.144;24.684;2023-06-14T12:18:44;98560.69;;;31.49;44.96
22753;BME280;11543;43.144;24.684;2023-06-14T12:21:10;98559.16;;;31.38;45.51
22753;BME280;11543;43.144;24.684;2023-06-14T12:26:18;98556.63;;;31.60;45.50
22753;BME280;11543;43.144;24.684;2023-06-14T12:28:47;98541.66;;;31.80;45.19
22753;BME280;11543;43.144;24.684;2023-06-14T12:31:16;98538.44;;;32.11;44.14
22753;BME280;11543;43.144;24.684;2023-06-14T12:33:42;98527.75;;;32.18;44.04
22753;BME280;11543;43.144;24.684;2023-06-14T12:36:09;98534.41;;;32.36;43.28
22753;BME280;11543;43.144;24.684;2023-06-14T12:38:36;98535.50;;;32.67;42.61
22753;BME280;11543;43.144;24.684;2023-06-14T12:41:01;98522.53;;;32.62;43.20
22753;BME280;11543;43.144;24.684;2023-06-14T12:43:27;98522.78;;;32.80;43.07
22753;BME280;11543;43.144;24.684;2023-06-14T12:45:53;98520.06;;;32.75;43.16
22753;BME280;11543;43.144;24.684;2023-06-14T12:48:19;98535.31;;;32.77;42.84
22753;BME280;11543;43.144;24.684;2023-06-14T12:50:44;98532.25;;;32.92;42.74
22753;BME280;11543;43.144;24.684;2023-06-14T12:53:10;98517.03;;;33.04;42.12
22753;BME280;11543;43.144;24.684;2023-06-14T12:55:36;98521.53;;;33.27;41.85
22753;BME280;11543;43.144;24.684;2023-06-14T12:58:01;98510.03;;;33.34;41.98
22753;BME280;11543;43.144;24.684;2023-06-14T13:00:27;98531.00;;;33.53;41.68
22753;BME280;11543;43.144;24.684;2023-06-14T13:02:55;98500.53;;;33.35;40.97
22753;BME280;11543;43.144;24.684;2023-06-14T13:05:21;98511.47;;;33.31;41.29
22753;BME280;11543;43.144;24.684;2023-06-14T13:07:46;98512.88;;;33.42;41.07
22753;BME280;11543;43.144;24.684;2023-06-14T13:10:12;98505.69;;;33.41;41.23
22753;BME280;11543;43.144;24.684;2023-06-14T13:12:37;98502.22;;;33.58;39.95
22753;BME280;11543;43.144;24.684;2023-06-14T13:15:03;98512.38;;;33.76;40.35
22753;BME280;11543;43.144;24.684;2023-06-14T13:17:29;98504.53;;;33.78;40.53
22753;BME280;11543;43.144;24.684;2023-06-14T13:19:55;98513.81;;;33.74;41.80
22753;BME280;11543;43.144;24.684;2023-06-14T13:22:20;98499.44;;;33.58;41.69
22753;BME280;11543;43.144;24.684;2023-06-14T13:24:46;98502.34;;;33.53;41.99
22753;BME280;11543;43.144;24.684;2023-06-14T13:27:11;98504.03;;;33.40;41.59
22753;BME280;11543;43.144;24.684;2023-06-14T13:29:40;98496.19;;;33.29;41.57
22753;BME280;11543;43.144;24.684;2023-06-14T13:32:06;98487.09;;;33.01;41.59
22753;BME280;11543;43.144;24.684;2023-06-14T13:34:32;98491.78;;;32.86;41.83
22753;BME280;11543;43.144;24.684;2023-06-14T13:36:57;98485.09;;;32.74;42.04
22753;BME280;11543;43.144;24.684;2023-06-14T13:39:25;98483.44;;;32.59;42.28
22753;BME280;11543;43.144;24.684;2023-06-14T13:41:50;98492.16;;;32.39;42.78
22753;BME280;11543;43.144;24.684;2023-06-14T13:44:16;98480.97;;;32.11;43.43
22753;BME280;11543;43.144;24.684;2023-06-14T13:46:44;98484.56;;;32.12;43.38